Barnett, Illinois
Current Conditions -  °F | °C
As of 10:15 AM on Wednesday 26 Nov 2014 (Local Time) from K3LF Reporting Station
Broken Clouds Broken Clouds  
Wind Chill: 22°   Ceiling: 9000
Heat Index: 30°   Visibility: 10mi
Dew Point: 26°   Wind: 9mph
Humidity: 84%   Direction: 130°SE
Pressure: 30.06"   Gusts: NA
Location:  39.1865°N, 89.679°W
Report Text: K3LF 261615Z AUTO 13008KT 10SM SCT075 BKN090 M01/M03 A3006 RMK AO2 T10091033
Loading
Personal Weather Stations






























Interactive Weather Map New forecast layout! Learn more

10-Day Weather Forecast

Advertisements
Track Severe Weather on mobile